sensor_id;sensor_type;location;lat;lon;timestamp;P1;durP1;ratioP1;P2;durP2;ratioP2
19347;SDS011;9810;52.480;9.806;2022-07-25T00:02:05;10.82;;;3.60;;
19347;SDS011;9810;52.480;9.806;2022-07-25T00:04:32;8.48;;;2.97;;
19347;SDS011;9810;52.480;9.806;2022-07-25T00:07:00;8.30;;;3.45;;
19347;SDS011;9810;52.480;9.806;2022-07-25T00:09:27;7.68;;;3.13;;
19347;SDS011;9810;52.480;9.806;2022-07-25T00:11:55;9.50;;;3.42;;
19347;SDS011;9810;52.480;9.806;2022-07-25T00:14:22;5.40;;;3.05;;
19347;SDS011;9810;52.480;9.806;2022-07-25T00:16:51;5.00;;;2.60;;
19347;SDS011;9810;52.480;9.806;2022-07-25T00:19:18;5.40;;;3.30;;
19347;SDS011;9810;52.480;9.806;2022-07-25T00:21:45;4.22;;;2.85;;
19347;SDS011;9810;52.480;9.806;2022-07-25T00:24:12;8.40;;;2.95;;
19347;SDS011;9810;52.480;9.806;2022-07-25T00:26:39;15.43;;;2.80;;
19347;SDS011;9810;52.480;9.806;2022-07-25T00:29:07;6.50;;;3.15;;
19347;SDS011;9810;52.480;9.806;2022-07-25T00:31:34;5.30;;;2.80;;
19347;SDS011;9810;52.480;9.806;2022-07-25T00:34:03;6.72;;;3.22;;
19347;SDS011;9810;52.480;9.806;2022-07-25T00:36:30;6.50;;;3.42;;
19347;SDS011;9810;52.480;9.806;2022-07-25T00:38:58;6.70;;;3.20;;
19347;SDS011;9810;52.480;9.806;2022-07-25T00:41:25;5.10;;;3.30;;
19347;SDS011;9810;52.480;9.806;2022-07-25T00:43:52;6.82;;;3.38;;
19347;SDS011;9810;52.480;9.806;2022-07-25T00:46:25;5.05;;;3.08;;
19347;SDS011;9810;52.480;9.806;2022-07-25T00:48:52;8.23;;;3.70;;
19347;SDS011;9810;52.480;9.806;2022-07-25T00:51:21;7.18;;;3.10;;
19347;SDS011;9810;52.480;9.806;2022-07-25T00:53:49;7.32;;;3.17;;
19347;SDS011;9810;52.480;9.806;2022-07-25T00:56:16;4.22;;;2.70;;
19347;SDS011;9810;52.480;9.806;2022-07-25T00:58:47;5.70;;;3.20;;
19347;SDS011;9810;52.480;9.806;2022-07-25T01:01:14;4.35;;;2.95;;
19347;SDS011;9810;52.480;9.806;2022-07-25T01:03:42;4.47;;;3.00;;
19347;SDS011;9810;52.480;9.806;2022-07-25T01:06:09;6.47;;;3.15;;
19347;SDS011;9810;52.480;9.806;2022-07-25T01:08:38;4.90;;;2.88;;
19347;SDS011;9810;52.480;9.806;2022-07-25T01:11:06;10.02;;;3.80;;
19347;SDS011;9810;52.480;9.806;2022-07-25T01:13:33;8.05;;;3.45;;
19347;SDS011;9810;52.480;9.806;2022-07-25T01:16:01;8.10;;;3.58;;
19347;SDS011;9810;52.480;9.806;2022-07-25T01:18:28;6.03;;;2.50;;
19347;SDS011;9810;52.480;9.806;2022-07-25T01:20:57;6.18;;;3.00;;
19347;SDS011;9810;52.480;9.806;2022-07-25T01:23:24;8.60;;;3.20;;
19347;SDS011;9810;52.480;9.806;2022-07-25T01:25:51;7.28;;;3.25;;
19347;SDS011;9810;52.480;9.806;2022-07-25T01:28:19;5.40;;;3.00;;
19347;SDS011;9810;52.480;9.806;2022-07-25T01:30:46;8.63;;;2.92;;
19347;SDS011;9810;52.480;9.806;2022-07-25T01:33:14;8.80;;;3.30;;
19347;SDS011;9810;52.480;9.806;2022-07-25T01:35:41;4.17;;;3.10;;
19347;SDS011;9810;52.480;9.806;2022-07-25T01:38:10;6.43;;;3.40;;
19347;SDS011;9810;52.480;9.806;2022-07-25T01:40:38;7.03;;;2.97;;
19347;SDS011;9810;52.480;9.806;2022-07-25T01:43:06;5.57;;;2.93;;
19347;SDS011;9810;52.480;9.806;2022-07-25T01:45:34;6.23;;;2.93;;
19347;SDS011;9810;52.480;9.806;2022-07-25T01:48:01;10.37;;;3.37;;
19347;SDS011;9810;52.480;9.806;2022-07-25T01:50:29;7.80;;;3.10;;
19347;SDS011;9810;52.480;9.806;2022-07-25T01:52:56;4.93;;;3.30;;
19347;SDS011;9810;52.480;9.806;2022-07-25T01:55:25;8.77;;;3.67;;
19347;SDS011;9810;52.480;9.806;2022-07-25T01:57:52;11.57;;;3.30;;
19347;SDS011;9810;52.480;9.806;2022-07-25T02:00:19;3.63;;;3.23;;
19347;SDS011;9810;52.480;9.806;2022-07-25T02:02:47;6.53;;;3.57;;
19347;SDS011;9810;52.480;9.806;2022-07-25T02:05:34;6.40;;;2.90;;
19347;SDS011;9810;52.480;9.806;2022-07-25T02:08:02;8.93;;;3.27;;
19347;SDS011;9810;52.480;9.806;2022-07-25T02:10:31;4.93;;;3.00;;
19347;SDS011;9810;52.480;9.806;2022-07-25T02:12:59;6.00;;;3.37;;
19347;SDS011;9810;52.480;9.806;2022-07-25T02:15:26;3.93;;;2.97;;
19347;SDS011;9810;52.480;9.806;2022-07-25T02:17:53;3.93;;;3.27;;
19347;SDS011;9810;52.480;9.806;2022-07-25T02:20:21;11.27;;;3.10;;
19347;SDS011;9810;52.480;9.806;2022-07-25T02:22:51;8.57;;;3.70;;
19347;SDS011;9810;52.480;9.806;2022-07-25T02:25:18;8.57;;;3.37;;
19347;SDS011;9810;52.480;9.806;2022-07-25T02:27:47;7.23;;;2.97;;
19347;SDS011;9810;52.480;9.806;2022-07-25T02:30:13;5.33;;;2.87;;
19347;SDS011;9810;52.480;9.806;2022-07-25T02:32:41;9.07;;;3.63;;
19347;SDS011;9810;52.480;9.806;2022-07-25T02:35:08;4.10;;;3.70;;
19347;SDS011;9810;52.480;9.806;2022-07-25T02:37:35;6.50;;;3.23;;
19347;SDS011;9810;52.480;9.806;2022-07-25T02:40:03;6.70;;;3.53;;
19347;SDS011;9810;52.480;9.806;2022-07-25T02:42:31;7.60;;;2.90;;
19347;SDS011;9810;52.480;9.806;2022-07-25T02:45:00;11.50;;;3.50;;
19347;SDS011;9810;52.480;9.806;2022-07-25T02:47:28;4.80;;;3.00;;
19347;SDS011;9810;52.480;9.806;2022-07-25T02:49:55;5.87;;;3.00;;
19347;SDS011;9810;52.480;9.806;2022-07-25T02:52:22;6.23;;;3.53;;
19347;SDS011;9810;52.480;9.806;2022-07-25T02:54:49;9.73;;;3.37;;
19347;SDS011;9810;52.480;9.806;2022-07-25T02:57:17;7.97;;;3.60;;
19347;SDS011;9810;52.480;9.806;2022-07-25T02:59:44;4.30;;;2.97;;
19347;SDS011;9810;52.480;9.806;2022-07-25T03:02:13;7.07;;;3.27;;
19347;SDS011;9810;52.480;9.806;2022-07-25T03:04:40;5.13;;;3.00;;
19347;SDS011;9810;52.480;9.806;2022-07-25T03:07:07;5.87;;;3.27;;
19347;SDS011;9810;52.480;9.806;2022-07-25T03:09:34;5.63;;;3.60;;
19347;SDS011;9810;52.480;9.806;2022-07-25T03:12:02;7.30;;;3.63;;
19347;SDS011;9810;52.480;9.806;2022-07-25T03:14:30;3.73;;;2.97;;
19347;SDS011;9810;52.480;9.806;2022-07-25T03:16:57;6.13;;;3.63;;
19347;SDS011;9810;52.480;9.806;2022-07-25T03:19:26;8.13;;;3.47;;
19347;SDS011;9810;52.480;9.806;2022-07-25T03:21:53;6.23;;;3.23;;
19347;SDS011;9810;52.480;9.806;2022-07-25T03:24:20;6.55;;;3.97;;
19347;SDS011;9810;52.480;9.806;2022-07-25T03:26:48;5.80;;;3.57;;
19347;SDS011;9810;52.480;9.806;2022-07-25T03:29:15;5.20;;;3.40;;
19347;SDS011;9810;52.480;9.806;2022-07-25T03:31:43;5.20;;;3.33;;
19347;SDS011;9810;52.480;9.806;2022-07-25T03:34:11;8.17;;;3.63;;
19347;SDS011;9810;52.480;9.806;2022-07-25T03:36:40;4.60;;;3.20;;
19347;SDS011;9810;52.480;9.806;2022-07-25T03:39:07;4.60;;;3.47;;
19347;SDS011;9810;52.480;9.806;2022-07-25T03:41:34;10.77;;;3.30;;
19347;SDS011;9810;52.480;9.806;2022-07-25T03:44:01;3.70;;;3.27;;
19347;SDS011;9810;52.480;9.806;2022-07-25T03:46:28;4.43;;;3.80;;
19347;SDS011;9810;52.480;9.806;2022-07-25T03:48:56;7.23;;;3.43;;
19347;SDS011;9810;52.480;9.806;2022-07-25T03:51:22;5.53;;;3.80;;
19347;SDS011;9810;52.480;9.806;2022-07-25T03:53:51;6.90;;;3.57;;
19347;SDS011;9810;52.480;9.806;2022-07-25T03:56:29;7.17;;;3.50;;
19347;SDS011;9810;52.480;9.806;2022-07-25T03:58:57;4.03;;;3.13;;
19347;SDS011;9810;52.480;9.806;2022-07-25T04:01:24;6.30;;;3.37;;
19347;SDS011;9810;52.480;9.806;2022-07-25T04:03:52;5.53;;;3.57;;
19347;SDS011;9810;52.480;9.806;2022-07-25T04:06:19;3.80;;;3.40;;
19347;SDS011;9810;52.480;9.806;2022-07-25T04:08:47;5.03;;;2.83;;
19347;SDS011;9810;52.480;9.806;2022-07-25T04:11:16;3.40;;;3.03;;
19347;SDS011;9810;52.480;9.806;2022-07-25T04:13:43;8.90;;;3.20;;
19347;SDS011;9810;52.480;9.806;2022-07-25T04:16:11;4.67;;;2.90;;
19347;SDS011;9810;52.480;9.806;2022-07-25T04:18:39;3.80;;;3.47;;
19347;SDS011;9810;52.480;9.806;2022-07-25T04:21:06;5.53;;;3.23;;
19347;SDS011;9810;52.480;9.806;2022-07-25T04:23:34;3.47;;;2.90;;
19347;SDS011;9810;52.480;9.806;2022-07-25T04:26:02;7.10;;;3.00;;
19347;SDS011;9810;52.480;9.806;2022-07-25T04:28:31;7.30;;;3.30;;
19347;SDS011;9810;52.480;9.806;2022-07-25T04:30:59;4.07;;;3.33;;
19347;SDS011;9810;52.480;9.806;2022-07-25T04:33:26;5.60;;;4.07;;
19347;SDS011;9810;52.480;9.806;2022-07-25T04:35:54;6.63;;;3.23;;
19347;SDS011;9810;52.480;9.806;2022-07-25T04:38:21;5.97;;;3.40;;
19347;SDS011;9810;52.480;9.806;2022-07-25T04:40:48;5.13;;;3.37;;
19347;SDS011;9810;52.480;9.806;2022-07-25T04:43:16;8.30;;;3.60;;
19347;SDS011;9810;52.480;9.806;2022-07-25T04:45:53;7.17;;;3.13;;
19347;SDS011;9810;52.480;9.806;2022-07-25T04:48:20;6.60;;;2.87;;
19347;SDS011;9810;52.480;9.806;2022-07-25T04:50:48;7.87;;;3.20;;
19347;SDS011;9810;52.480;9.806;2022-07-25T04:53:15;8.70;;;3.60;;
19347;SDS011;9810;52.480;9.806;2022-07-25T04:55:42;5.63;;;2.90;;
19347;SDS011;9810;52.480;9.806;2022-07-25T04:58:09;11.97;;;4.13;;
19347;SDS011;9810;52.480;9.806;2022-07-25T05:00:37;6.57;;;3.60;;
19347;SDS011;9810;52.480;9.806;2022-07-25T05:03:05;3.17;;;2.83;;
19347;SDS011;9810;52.480;9.806;2022-07-25T05:05:33;4.30;;;3.17;;
19347;SDS011;9810;52.480;9.806;2022-07-25T05:08:01;3.67;;;2.97;;
19347;SDS011;9810;52.480;9.806;2022-07-25T05:10:29;3.80;;;2.93;;
19347;SDS011;9810;52.480;9.806;2022-07-25T05:12:57;5.53;;;3.33;;
19347;SDS011;9810;52.480;9.806;2022-07-25T05:15:35;5.23;;;2.97;;
19347;SDS011;9810;52.480;9.806;2022-07-25T05:18:02;4.53;;;3.00;;
19347;SDS011;9810;52.480;9.806;2022-07-25T05:20:32;4.97;;;2.77;;
19347;SDS011;9810;52.480;9.806;2022-07-25T05:22:59;3.73;;;2.80;;
19347;SDS011;9810;52.480;9.806;2022-07-25T05:25:26;5.27;;;3.37;;
19347;SDS011;9810;52.480;9.806;2022-07-25T05:27:54;3.17;;;2.87;;
19347;SDS011;9810;52.480;9.806;2022-07-25T05:30:22;5.47;;;3.20;;
19347;SDS011;9810;52.480;9.806;2022-07-25T05:32:50;5.10;;;2.90;;
19347;SDS011;9810;52.480;9.806;2022-07-25T05:35:17;5.38;;;2.92;;
19347;SDS011;9810;52.480;9.806;2022-07-25T05:37:46;3.35;;;2.78;;
19347;SDS011;9810;52.480;9.806;2022-07-25T05:40:13;3.53;;;2.95;;
19347;SDS011;9810;52.480;9.806;2022-07-25T05:42:43;6.47;;;3.13;;
19347;SDS011;9810;52.480;9.806;2022-07-25T05:45:11;4.45;;;2.90;;
19347;SDS011;9810;52.480;9.806;2022-07-25T05:47:38;5.60;;;3.00;;
19347;SDS011;9810;52.480;9.806;2022-07-25T05:50:05;3.38;;;2.80;;
19347;SDS011;9810;52.480;9.806;2022-07-25T05:52:33;4.90;;;2.85;;
19347;SDS011;9810;52.480;9.806;2022-07-25T05:55:02;8.35;;;2.88;;
19347;SDS011;9810;52.480;9.806;2022-07-25T05:57:29;3.95;;;2.70;;
19347;SDS011;9810;52.480;9.806;2022-07-25T05:59:57;3.67;;;2.78;;
19347;SDS011;9810;52.480;9.806;2022-07-25T06:02:24;6.25;;;2.72;;
19347;SDS011;9810;52.480;9.806;2022-07-25T06:04:51;4.05;;;3.10;;
19347;SDS011;9810;52.480;9.806;2022-07-25T06:07:18;4.70;;;3.28;;
19347;SDS011;9810;52.480;9.806;2022-07-25T06:09:46;3.83;;;3.03;;
19347;SDS011;9810;52.480;9.806;2022-07-25T06:12:18;11.60;;;3.03;;
19347;SDS011;9810;52.480;9.806;2022-07-25T06:14:45;7.45;;;3.30;;
19347;SDS011;9810;52.480;9.806;2022-07-25T06:17:12;8.52;;;3.38;;
19347;SDS011;9810;52.480;9.806;2022-07-25T06:19:41;4.53;;;2.88;;
19347;SDS011;9810;52.480;9.806;2022-07-25T06:22:08;7.13;;;3.90;;
19347;SDS011;9810;52.480;9.806;2022-07-25T06:24:35;9.38;;;3.67;;
19347;SDS011;9810;52.480;9.806;2022-07-25T06:27:03;6.53;;;3.50;;
19347;SDS011;9810;52.480;9.806;2022-07-25T06:29:32;11.02;;;3.78;;
19347;SDS011;9810;52.480;9.806;2022-07-25T06:31:59;7.18;;;3.97;;
19347;SDS011;9810;52.480;9.806;2022-07-25T06:34:26;6.45;;;3.03;;
19347;SDS011;9810;52.480;9.806;2022-07-25T06:36:53;8.68;;;3.28;;
19347;SDS011;9810;52.480;9.806;2022-07-25T06:39:21;7.18;;;3.33;;
19347;SDS011;9810;52.480;9.806;2022-07-25T06:41:48;5.85;;;3.25;;
19347;SDS011;9810;52.480;9.806;2022-07-25T06:44:16;7.60;;;3.70;;
19347;SDS011;9810;52.480;9.806;2022-07-25T06:46:46;4.82;;;3.85;;
19347;SDS011;9810;52.480;9.806;2022-07-25T06:49:13;10.48;;;3.92;;
19347;SDS011;9810;52.480;9.806;2022-07-25T06:51:40;4.25;;;3.38;;
19347;SDS011;9810;52.480;9.806;2022-07-25T06:54:07;7.60;;;3.47;;
19347;SDS011;9810;52.480;9.806;2022-07-25T06:56:34;8.50;;;3.45;;
19347;SDS011;9810;52.480;9.806;2022-07-25T06:59:02;4.75;;;3.55;;
19347;SDS011;9810;52.480;9.806;2022-07-25T07:01:29;6.47;;;3.17;;
19347;SDS011;9810;52.480;9.806;2022-07-25T07:03:59;3.58;;;3.22;;
19347;SDS011;9810;52.480;9.806;2022-07-25T07:06:26;3.60;;;3.30;;
19347;SDS011;9810;52.480;9.806;2022-07-25T07:08:53;4.40;;;3.40;;
19347;SDS011;9810;52.480;9.806;2022-07-25T07:11:21;5.47;;;3.45;;
19347;SDS011;9810;52.480;9.806;2022-07-25T07:13:48;5.10;;;4.10;;
19347;SDS011;9810;52.480;9.806;2022-07-25T07:16:16;3.63;;;3.20;;
19347;SDS011;9810;52.480;9.806;2022-07-25T07:18:43;5.20;;;3.50;;
19347;SDS011;9810;52.480;9.806;2022-07-25T07:21:12;4.53;;;3.75;;
19347;SDS011;9810;52.480;9.806;2022-07-25T07:23:40;4.40;;;3.65;;
19347;SDS011;9810;52.480;9.806;2022-07-25T07:26:07;5.20;;;3.95;;
19347;SDS011;9810;52.480;9.806;2022-07-25T07:28:34;4.55;;;3.35;;
19347;SDS011;9810;52.480;9.806;2022-07-25T07:31:01;5.43;;;3.45;;
19347;SDS011;9810;52.480;9.806;2022-07-25T07:33:28;6.50;;;4.25;;
19347;SDS011;9810;52.480;9.806;2022-07-25T07:35:56;6.57;;;3.40;;
19347;SDS011;9810;52.480;9.806;2022-07-25T07:38:25;5.55;;;4.28;;
19347;SDS011;9810;52.480;9.806;2022-07-25T07:40:53;5.03;;;4.53;;
19347;SDS011;9810;52.480;9.806;2022-07-25T07:43:20;5.35;;;4.15;;
19347;SDS011;9810;52.480;9.806;2022-07-25T07:45:48;5.22;;;3.60;;
19347;SDS011;9810;52.480;9.806;2022-07-25T07:48:15;10.35;;;4.25;;
19347;SDS011;9810;52.480;9.806;2022-07-25T07:50:43;7.25;;;3.88;;
19347;SDS011;9810;52.480;9.806;2022-07-25T07:53:10;4.70;;;4.20;;
19347;SDS011;9810;52.480;9.806;2022-07-25T07:55:39;4.65;;;4.15;;
19347;SDS011;9810;52.480;9.806;2022-07-25T07:58:13;4.47;;;4.05;;
19347;SDS011;9810;52.480;9.806;2022-07-25T08:00:42;4.53;;;3.97;;
19347;SDS011;9810;52.480;9.806;2022-07-25T08:03:11;7.18;;;4.72;;
19347;SDS011;9810;52.480;9.806;2022-07-25T08:05:39;5.90;;;4.40;;
19347;SDS011;9810;52.480;9.806;2022-07-25T08:08:09;5.13;;;3.92;;
19347;SDS011;9810;52.480;9.806;2022-07-25T08:10:41;6.80;;;4.38;;
19347;SDS011;9810;52.480;9.806;2022-07-25T08:13:12;3.85;;;3.55;;
19347;SDS011;9810;52.480;9.806;2022-07-25T08:15:41;8.35;;;4.80;;
19347;SDS011;9810;52.480;9.806;2022-07-25T08:18:09;5.78;;;4.22;;
19347;SDS011;9810;52.480;9.806;2022-07-25T08:20:37;5.55;;;4.25;;
19347;SDS011;9810;52.480;9.806;2022-07-25T08:23:04;5.13;;;4.63;;
19347;SDS011;9810;52.480;9.806;2022-07-25T08:25:32;5.63;;;4.63;;
19347;SDS011;9810;52.480;9.806;2022-07-25T08:28:03;5.88;;;4.40;;
19347;SDS011;9810;52.480;9.806;2022-07-25T08:30:32;10.40;;;4.60;;
19347;SDS011;9810;52.480;9.806;2022-07-25T08:33:00;5.72;;;4.03;;
19347;SDS011;9810;52.480;9.806;2022-07-25T08:35:29;5.13;;;4.63;;
19347;SDS011;9810;52.480;9.806;2022-07-25T08:37:57;7.38;;;4.78;;
19347;SDS011;9810;52.480;9.806;2022-07-25T08:40:26;6.35;;;4.07;;
19347;SDS011;9810;52.480;9.806;2022-07-25T08:42:56;7.30;;;4.90;;
19347;SDS011;9810;52.480;9.806;2022-07-25T08:45:25;4.90;;;4.22;;
19347;SDS011;9810;52.480;9.806;2022-07-25T08:47:54;7.60;;;4.68;;
19347;SDS011;9810;52.480;9.806;2022-07-25T08:50:22;6.65;;;4.60;;
19347;SDS011;9810;52.480;9.806;2022-07-25T08:52:51;5.78;;;4.65;;
19347;SDS011;9810;52.480;9.806;2022-07-25T08:55:19;5.63;;;4.57;;
19347;SDS011;9810;52.480;9.806;2022-07-25T08:57:48;5.95;;;4.68;;
19347;SDS011;9810;52.480;9.806;2022-07-25T09:00:17;6.32;;;4.80;;
19347;SDS011;9810;52.480;9.806;2022-07-25T09:02:51;6.25;;;4.68;;
19347;SDS011;9810;52.480;9.806;2022-07-25T09:05:19;5.85;;;4.75;;
19347;SDS011;9810;52.480;9.806;2022-07-25T09:07:48;7.35;;;4.57;;
19347;SDS011;9810;52.480;9.806;2022-07-25T09:10:16;6.30;;;5.00;;
19347;SDS011;9810;52.480;9.806;2022-07-25T09:12:50;6.32;;;5.68;;
19347;SDS011;9810;52.480;9.806;2022-07-25T09:15:22;4.78;;;4.18;;
19347;SDS011;9810;52.480;9.806;2022-07-25T09:17:52;6.88;;;4.80;;
19347;SDS011;9810;52.480;9.806;2022-07-25T09:20:23;4.70;;;4.30;;
19347;SDS011;9810;52.480;9.806;2022-07-25T09:22:51;5.15;;;4.18;;
19347;SDS011;9810;52.480;9.806;2022-07-25T09:25:18;5.35;;;4.85;;
19347;SDS011;9810;52.480;9.806;2022-07-25T09:27:46;6.45;;;4.32;;
19347;SDS011;9810;52.480;9.806;2022-07-25T09:30:14;5.93;;;4.75;;
19347;SDS011;9810;52.480;9.806;2022-07-25T09:32:42;5.28;;;4.18;;
19347;SDS011;9810;52.480;9.806;2022-07-25T09:35:11;5.20;;;4.80;;
19347;SDS011;9810;52.480;9.806;2022-07-25T09:37:39;8.23;;;4.53;;
19347;SDS011;9810;52.480;9.806;2022-07-25T09:40:10;7.20;;;4.47;;
19347;SDS011;9810;52.480;9.806;2022-07-25T09:42:40;7.78;;;5.05;;
19347;SDS011;9810;52.480;9.806;2022-07-25T09:45:10;5.35;;;4.85;;
19347;SDS011;9810;52.480;9.806;2022-07-25T09:47:49;6.05;;;4.53;;
19347;SDS011;9810;52.480;9.806;2022-07-25T09:50:20;9.20;;;5.82;;
19347;SDS011;9810;52.480;9.806;2022-07-25T09:52:50;6.20;;;4.68;;
19347;SDS011;9810;52.480;9.806;2022-07-25T09:55:18;5.95;;;5.20;;
19347;SDS011;9810;52.480;9.806;2022-07-25T09:57:46;5.20;;;4.50;;
19347;SDS011;9810;52.480;9.806;2022-07-25T10:00:18;5.78;;;4.75;;
19347;SDS011;9810;52.480;9.806;2022-07-25T10:02:48;4.85;;;4.40;;
19347;SDS011;9810;52.480;9.806;2022-07-25T10:05:24;5.63;;;5.13;;
19347;SDS011;9810;52.480;9.806;2022-07-25T10:08:04;5.70;;;5.10;;
19347;SDS011;9810;52.480;9.806;2022-07-25T10:10:35;5.80;;;5.18;;
19347;SDS011;9810;52.480;9.806;2022-07-25T10:13:06;5.45;;;4.75;;
19347;SDS011;9810;52.480;9.806;2022-07-25T10:15:40;5.90;;;4.80;;
19347;SDS011;9810;52.480;9.806;2022-07-25T10:18:12;5.53;;;4.32;;
19347;SDS011;9810;52.480;9.806;2022-07-25T10:20:42;6.75;;;5.07;;
19347;SDS011;9810;52.480;9.806;2022-07-25T10:23:20;9.82;;;4.97;;
19347;SDS011;9810;52.480;9.806;2022-07-25T10:25:58;6.72;;;5.40;;
19347;SDS011;9810;52.480;9.806;2022-07-25T10:28:39;5.75;;;4.85;;
19347;SDS011;9810;52.480;9.806;2022-07-25T10:31:19;4.68;;;4.10;;
19347;SDS011;9810;52.480;9.806;2022-07-25T10:33:50;5.50;;;5.00;;
19347;SDS011;9810;52.480;9.806;2022-07-25T10:36:20;5.95;;;4.50;;
19347;SDS011;9810;52.480;9.806;2022-07-25T10:38:55;5.70;;;4.82;;
19347;SDS011;9810;52.480;9.806;2022-07-25T10:41:24;5.80;;;5.30;;
19347;SDS011;9810;52.480;9.806;2022-07-25T10:43:54;8.68;;;4.47;;
19347;SDS011;9810;52.480;9.806;2022-07-25T10:46:36;6.15;;;5.25;;
19347;SDS011;9810;52.480;9.806;2022-07-25T10:49:04;5.00;;;4.50;;
19347;SDS011;9810;52.480;9.806;2022-07-25T10:51:34;5.32;;;4.72;;
19347;SDS011;9810;52.480;9.806;2022-07-25T10:54:12;5.35;;;4.78;;
19347;SDS011;9810;52.480;9.806;2022-07-25T10:56:49;4.82;;;4.28;;
19347;SDS011;9810;52.480;9.806;2022-07-25T10:59:24;5.60;;;5.00;;
19347;SDS011;9810;52.480;9.806;2022-07-25T11:01:52;5.90;;;5.07;;
19347;SDS011;9810;52.480;9.806;2022-07-25T11:04:20;6.72;;;4.68;;
19347;SDS011;9810;52.480;9.806;2022-07-25T11:06:49;5.95;;;5.40;;
19347;SDS011;9810;52.480;9.806;2022-07-25T11:09:17;5.55;;;4.95;;
19347;SDS011;9810;52.480;9.806;2022-07-25T11:11:46;5.82;;;5.10;;
19347;SDS011;9810;52.480;9.806;2022-07-25T11:14:15;5.90;;;5.22;;
19347;SDS011;9810;52.480;9.806;2022-07-25T11:16:44;6.15;;;5.30;;
19347;SDS011;9810;52.480;9.806;2022-07-25T11:19:14;7.10;;;4.70;;
19347;SDS011;9810;52.480;9.806;2022-07-25T11:21:44;6.65;;;5.20;;
19347;SDS011;9810;52.480;9.806;2022-07-25T11:24:14;4.75;;;4.30;;
19347;SDS011;9810;52.480;9.806;2022-07-25T11:26:44;6.07;;;5.45;;
19347;SDS011;9810;52.480;9.806;2022-07-25T11:29:17;9.65;;;4.97;;
19347;SDS011;9810;52.480;9.806;2022-07-25T11:31:50;8.10;;;5.57;;
19347;SDS011;9810;52.480;9.806;2022-07-25T11:34:20;5.10;;;4.60;;
19347;SDS011;9810;52.480;9.806;2022-07-25T11:36:49;8.00;;;4.80;;
19347;SDS011;9810;52.480;9.806;2022-07-25T11:39:22;5.47;;;4.97;;
19347;SDS011;9810;52.480;9.806;2022-07-25T11:41:57;6.93;;;5.13;;
19347;SDS011;9810;52.480;9.806;2022-07-25T11:44:29;12.93;;;5.45;;
19347;SDS011;9810;52.480;9.806;2022-07-25T11:47:01;6.45;;;5.00;;
19347;SDS011;9810;52.480;9.806;2022-07-25T11:49:29;5.72;;;5.22;;
19347;SDS011;9810;52.480;9.806;2022-07-25T11:51:56;6.80;;;5.22;;
19347;SDS011;9810;52.480;9.806;2022-07-25T11:54:25;6.53;;;5.25;;
19347;SDS011;9810;52.480;9.806;2022-07-25T11:56:53;7.20;;;4.65;;
19347;SDS011;9810;52.480;9.806;2022-07-25T11:59:20;5.40;;;4.95;;
19347;SDS011;9810;52.480;9.806;2022-07-25T12:01:47;6.05;;;5.00;;
19347;SDS011;9810;52.480;9.806;2022-07-25T12:04:15;7.07;;;4.50;;
19347;SDS011;9810;52.480;9.806;2022-07-25T12:06:45;8.00;;;5.22;;
19347;SDS011;9810;52.480;9.806;2022-07-25T12:09:15;5.55;;;5.05;;
19347;SDS011;9810;52.480;9.806;2022-07-25T12:11:45;6.68;;;5.00;;
19347;SDS011;9810;52.480;9.806;2022-07-25T12:14:15;5.85;;;5.03;;
19347;SDS011;9810;52.480;9.806;2022-07-25T12:16:42;5.30;;;4.60;;
19347;SDS011;9810;52.480;9.806;2022-07-25T12:19:16;6.60;;;5.40;;
19347;SDS011;9810;52.480;9.806;2022-07-25T12:21:44;8.07;;;5.05;;
19347;SDS011;9810;52.480;9.806;2022-07-25T12:24:12;5.80;;;5.28;;
19347;SDS011;9810;52.480;9.806;2022-07-25T12:26:40;5.93;;;5.20;;
19347;SDS011;9810;52.480;9.806;2022-07-25T12:29:09;6.30;;;5.13;;
19347;SDS011;9810;52.480;9.806;2022-07-25T12:31:35;5.78;;;4.85;;
19347;SDS011;9810;52.480;9.806;2022-07-25T12:34:03;5.88;;;5.13;;
19347;SDS011;9810;52.480;9.806;2022-07-25T12:36:30;5.82;;;5.32;;
19347;SDS011;9810;52.480;9.806;2022-07-25T12:38:58;6.97;;;5.15;;
19347;SDS011;9810;52.480;9.806;2022-07-25T12:41:26;7.10;;;5.53;;
19347;SDS011;9810;52.480;9.806;2022-07-25T12:43:53;10.55;;;5.88;;
19347;SDS011;9810;52.480;9.806;2022-07-25T12:46:23;8.40;;;4.95;;
19347;SDS011;9810;52.480;9.806;2022-07-25T12:48:50;5.50;;;4.93;;
19347;SDS011;9810;52.480;9.806;2022-07-25T12:51:18;6.47;;;4.93;;
19347;SDS011;9810;52.480;9.806;2022-07-25T12:53:45;7.72;;;5.32;;
19347;SDS011;9810;52.480;9.806;2022-07-25T12:56:13;11.93;;;5.60;;
19347;SDS011;9810;52.480;9.806;2022-07-25T12:58:41;7.63;;;4.95;;
19347;SDS011;9810;52.480;9.806;2022-07-25T13:01:08;9.13;;;5.82;;
19347;SDS011;9810;52.480;9.806;2022-07-25T13:03:39;6.35;;;4.65;;
19347;SDS011;9810;52.480;9.806;2022-07-25T13:06:06;6.00;;;4.93;;
19347;SDS011;9810;52.480;9.806;2022-07-25T13:08:33;6.15;;;5.15;;
19347;SDS011;9810;52.480;9.806;2022-07-25T13:11:01;6.78;;;5.30;;
19347;SDS011;9810;52.480;9.806;2022-07-25T13:13:29;6.07;;;5.38;;
19347;SDS011;9810;52.480;9.806;2022-07-25T13:15:56;6.10;;;5.13;;
19347;SDS011;9810;52.480;9.806;2022-07-25T13:18:24;8.38;;;5.60;;
19347;SDS011;9810;52.480;9.806;2022-07-25T13:20:56;10.00;;;5.65;;
19347;SDS011;9810;52.480;9.806;2022-07-25T13:23:24;8.90;;;5.65;;
19347;SDS011;9810;52.480;9.806;2022-07-25T13:25:52;6.93;;;5.35;;
19347;SDS011;9810;52.480;9.806;2022-07-25T13:28:18;11.07;;;5.25;;
19347;SDS011;9810;52.480;9.806;2022-07-25T13:30:46;8.10;;;5.72;;
19347;SDS011;9810;52.480;9.806;2022-07-25T13:33:13;5.50;;;4.97;;
19347;SDS011;9810;52.480;9.806;2022-07-25T13:35:40;6.72;;;5.30;;
19347;SDS011;9810;52.480;9.806;2022-07-25T13:38:10;6.88;;;5.25;;
19347;SDS011;9810;52.480;9.806;2022-07-25T13:40:37;6.50;;;5.47;;
19347;SDS011;9810;52.480;9.806;2022-07-25T13:43:06;6.88;;;4.93;;
19347;SDS011;9810;52.480;9.806;2022-07-25T13:45:33;6.65;;;4.95;;
19347;SDS011;9810;52.480;9.806;2022-07-25T13:48:01;7.32;;;5.32;;
19347;SDS011;9810;52.480;9.806;2022-07-25T13:50:28;6.18;;;5.57;;
19347;SDS011;9810;52.480;9.806;2022-07-25T13:52:56;7.95;;;5.43;;
19347;SDS011;9810;52.480;9.806;2022-07-25T13:55:26;7.97;;;4.78;;
19347;SDS011;9810;52.480;9.806;2022-07-25T13:57:54;8.85;;;5.70;;
19347;SDS011;9810;52.480;9.806;2022-07-25T14:00:22;8.93;;;5.05;;
19347;SDS011;9810;52.480;9.806;2022-07-25T14:02:49;7.25;;;4.78;;
19347;SDS011;9810;52.480;9.806;2022-07-25T14:05:17;7.35;;;5.50;;
19347;SDS011;9810;52.480;9.806;2022-07-25T14:07:44;7.35;;;5.40;;
19347;SDS011;9810;52.480;9.806;2022-07-25T14:10:12;5.75;;;4.75;;
19347;SDS011;9810;52.480;9.806;2022-07-25T14:12:40;7.22;;;5.78;;
19347;SDS011;9810;52.480;9.806;2022-07-25T14:15:08;5.80;;;5.13;;
19347;SDS011;9810;52.480;9.806;2022-07-25T14:17:36;8.68;;;4.82;;
19347;SDS011;9810;52.480;9.806;2022-07-25T14:20:04;5.97;;;5.22;;
19347;SDS011;9810;52.480;9.806;2022-07-25T14:22:32;5.97;;;5.10;;
19347;SDS011;9810;52.480;9.806;2022-07-25T14:25:00;7.05;;;5.07;;
19347;SDS011;9810;52.480;9.806;2022-07-25T14:27:27;6.10;;;5.50;;
19347;SDS011;9810;52.480;9.806;2022-07-25T14:29:55;6.30;;;5.40;;
19347;SDS011;9810;52.480;9.806;2022-07-25T14:32:23;5.63;;;5.13;;
19347;SDS011;9810;52.480;9.806;2022-07-25T14:34:50;7.47;;;5.53;;
19347;SDS011;9810;52.480;9.806;2022-07-25T14:37:18;6.18;;;5.53;;
19347;SDS011;9810;52.480;9.806;2022-07-25T14:39:47;6.85;;;5.38;;
19347;SDS011;9810;52.480;9.806;2022-07-25T14:42:17;6.40;;;5.68;;
19347;SDS011;9810;52.480;9.806;2022-07-25T14:44:44;6.68;;;4.70;;
19347;SDS011;9810;52.480;9.806;2022-07-25T14:47:13;5.72;;;5.13;;
19347;SDS011;9810;52.480;9.806;2022-07-25T14:49:40;5.88;;;5.28;;
19347;SDS011;9810;52.480;9.806;2022-07-25T14:52:08;5.60;;;5.07;;
19347;SDS011;9810;52.480;9.806;2022-07-25T14:54:35;7.10;;;4.93;;
19347;SDS011;9810;52.480;9.806;2022-07-25T14:57:03;6.28;;;5.68;;
19347;SDS011;9810;52.480;9.806;2022-07-25T14:59:31;10.90;;;5.13;;
19347;SDS011;9810;52.480;9.806;2022-07-25T15:01:58;8.82;;;5.13;;
19347;SDS011;9810;52.480;9.806;2022-07-25T15:04:27;8.15;;;5.03;;
19347;SDS011;9810;52.480;9.806;2022-07-25T15:06:54;5.93;;;5.03;;
19347;SDS011;9810;52.480;9.806;2022-07-25T15:09:21;9.05;;;4.88;;